sensor_id;sensor_type;location;lat;lon;timestamp;pressure;altitude;pressure_sealevel;temperature;humidity
7297;BME280;40758;54.038;11.684;2023-02-14T00:01:51;103413.31;;;4.25;100.00
7297;BME280;40758;54.038;11.684;2023-02-14T00:04:20;103417.72;;;4.26;100.00
7297;BME280;40758;54.038;11.684;2023-02-14T00:06:48;103424.09;;;4.15;100.00
7297;BME280;40758;54.038;11.684;2023-02-14T00:09:19;103419.59;;;4.20;100.00
7297;BME280;40758;54.038;11.684;2023-02-14T00:11:48;103414.06;;;4.33;100.00
7297;BME280;40758;54.038;11.684;2023-02-14T00:14:18;103411.31;;;4.39;100.00
7297;BME280;40758;54.038;11.684;2023-02-14T00:17:04;103407.84;;;4.36;100.00
7297;BME280;40758;54.038;11.684;2023-02-14T00:19:32;103395.44;;;4.33;100.00
7297;BME280;40758;54.038;11.684;2023-02-14T00:22:03;103398.09;;;4.33;100.00
7297;BME280;40758;54.038;11.684;2023-02-14T00:24:33;103405.28;;;4.28;100.00
7297;BME280;40758;54.038;11.684;2023-02-14T00:27:01;103405.34;;;4.25;100.00
7297;BME280;40758;54.038;11.684;2023-02-14T00:29:31;103400.84;;;4.27;100.00
7297;BME280;40758;54.038;11.684;2023-02-14T00:32:00;103404.31;;;4.32;100.00
7297;BME280;40758;54.038;11.684;2023-02-14T00:34:29;103398.81;;;4.44;100.00
7297;BME280;40758;54.038;11.684;2023-02-14T00:36:59;103407.75;;;4.42;100.00
7297;BME280;40758;54.038;11.684;2023-02-14T00:39:27;103397.28;;;4.30;100.00
7297;BME280;40758;54.038;11.684;2023-02-14T00:41:57;103407.13;;;4.23;100.00
7297;BME280;40758;54.038;11.684;2023-02-14T00:44:25;103410.69;;;4.22;100.00
7297;BME280;40758;54.038;11.684;2023-02-14T00:46:53;103406.25;;;4.23;100.00
7297;BME280;40758;54.038;11.684;2023-02-14T00:49:22;103410.69;;;4.22;100.00
7297;BME280;40758;54.038;11.684;2023-02-14T00:51:53;103406.22;;;4.26;100.00
7297;BME280;40758;54.038;11.684;2023-02-14T00:54:21;103404.38;;;4.31;100.00
7297;BME280;40758;54.038;11.684;2023-02-14T00:56:50;103399.88;;;4.34;100.00
7297;BME280;40758;54.038;11.684;2023-02-14T00:59:20;103398.97;;;4.35;100.00
7297;BME280;40758;54.038;11.684;2023-02-14T01:01:49;103397.97;;;4.42;100.00
7297;BME280;40758;54.038;11.684;2023-02-14T01:04:17;103398.72;;;4.51;100.00
7297;BME280;40758;54.038;11.684;2023-02-14T01:06:46;103401.47;;;4.44;100.00
7297;BME280;40758;54.038;11.684;2023-02-14T01:09:14;103383.78;;;4.40;100.00
7297;BME280;40758;54.038;11.684;2023-02-14T01:11:43;103382.09;;;4.38;100.00
7297;BME280;40758;54.038;11.684;2023-02-14T01:14:11;103387.34;;;4.39;100.00
7297;BME280;40758;54.038;11.684;2023-02-14T01:16:41;103382.72;;;4.52;100.00
7297;BME280;40758;54.038;11.684;2023-02-14T01:19:09;103373.75;;;4.59;100.00
7297;BME280;40758;54.038;11.684;2023-02-14T01:21:37;103375.59;;;4.54;100.00
7297;BME280;40758;54.038;11.684;2023-02-14T01:24:07;103366.91;;;4.43;100.00
7297;BME280;40758;54.038;11.684;2023-02-14T01:26:36;103375.88;;;4.37;100.00
7297;BME280;40758;54.038;11.684;2023-02-14T01:29:05;103377.56;;;4.41;100.00
7297;BME280;40758;54.038;11.684;2023-02-14T01:31:35;103371.16;;;4.55;100.00
7297;BME280;40758;54.038;11.684;2023-02-14T01:34:04;103371.09;;;4.58;100.00
7297;BME280;40758;54.038;11.684;2023-02-14T01:36:37;103365.84;;;4.55;100.00
7297;BME280;40758;54.038;11.684;2023-02-14T01:39:09;103375.63;;;4.51;100.00
7297;BME280;40758;54.038;11.684;2023-02-14T01:41:41;103380.97;;;4.51;100.00
7297;BME280;40758;54.038;11.684;2023-02-14T01:44:54;103383.78;;;4.43;100.00
7297;BME280;40758;54.038;11.684;2023-02-14T01:47:25;103383.00;;;4.35;100.00
7297;BME280;40758;54.038;11.684;2023-02-14T01:50:02;103381.38;;;4.25;100.00
7297;BME280;40758;54.038;11.684;2023-02-14T01:52:36;103380.53;;;4.22;100.00
7297;BME280;40758;54.038;11.684;2023-02-14T01:55:11;103384.13;;;4.19;100.00
7297;BME280;40758;54.038;11.684;2023-02-14T01:57:46;103377.09;;;4.14;100.00
7297;BME280;40758;54.038;11.684;2023-02-14T02:00:17;103377.97;;;4.14;100.00
7297;BME280;40758;54.038;11.684;2023-02-14T02:03:06;103378.84;;;4.16;100.00
7297;BME280;40758;54.038;11.684;2023-02-14T02:05:40;103379.72;;;4.17;100.00
7297;BME280;40758;54.038;11.684;2023-02-14T02:08:12;103376.09;;;4.21;100.00
7297;BME280;40758;54.038;11.684;2023-02-14T02:10:41;103377.16;;;4.11;100.00
7297;BME280;40758;54.038;11.684;2023-02-14T02:13:16;103359.31;;;4.17;100.00
7297;BME280;40758;54.038;11.684;2023-02-14T02:16:01;103379.63;;;4.24;100.00
7297;BME280;40758;54.038;11.684;2023-02-14T02:18:44;103380.63;;;4.14;100.00
7297;BME280;40758;54.038;11.684;2023-02-14T02:24:51;103387.69;;;4.18;100.00
7297;BME280;40758;54.038;11.684;2023-02-14T02:27:50;103387.63;;;4.23;100.00
7297;BME280;40758;54.038;11.684;2023-02-14T02:31:10;103379.72;;;4.17;100.00
7297;BME280;40758;54.038;11.684;2023-02-14T02:34:39;103383.28;;;4.17;100.00
7297;BME280;40758;54.038;11.684;2023-02-14T02:37:31;103377.06;;;4.17;100.00
7297;BME280;40758;54.038;11.684;2023-02-14T02:40:22;103375.13;;;4.26;100.00
7297;BME280;40758;54.038;11.684;2023-02-14T02:43:08;103377.09;;;4.15;100.00
7297;BME280;40758;54.038;11.684;2023-02-14T02:45:48;103370.84;;;4.19;100.00
7297;BME280;40758;54.038;11.684;2023-02-14T02:48:42;103373.34;;;4.27;100.00
7297;BME280;40758;54.038;11.684;2023-02-14T02:51:20;103372.47;;;4.26;100.00
7297;BME280;40758;54.038;11.684;2023-02-14T02:54:19;103361.69;;;4.35;100.00
7297;BME280;40758;54.038;11.684;2023-02-14T02:56:53;103345.66;;;4.40;100.00
7297;BME280;40758;54.038;11.684;2023-02-14T02:59:29;103355.41;;;4.39;100.00
7297;BME280;40758;54.038;11.684;2023-02-14T03:02:06;103348.44;;;4.32;100.00
7297;BME280;40758;54.038;11.684;2023-02-14T03:04:41;103351.94;;;4.34;100.00
7297;BME280;40758;54.038;11.684;2023-02-14T03:07:32;103354.53;;;4.39;100.00
7297;BME280;40758;54.038;11.684;2023-02-14T03:10:14;103354.53;;;4.40;100.00
7297;BME280;40758;54.038;11.684;2023-02-14T03:13:16;103354.69;;;4.30;100.00
7297;BME280;40758;54.038;11.684;2023-02-14T03:16:07;103353.94;;;4.20;100.00
7297;BME280;40758;54.038;11.684;2023-02-14T03:19:02;103356.75;;;4.13;100.00
7297;BME280;40758;54.038;11.684;2023-02-14T03:21:58;103353.09;;;4.18;100.00
7297;BME280;40758;54.038;11.684;2023-02-14T03:24:39;103356.75;;;4.13;100.00
7297;BME280;40758;54.038;11.684;2023-02-14T03:27:16;103356.78;;;4.08;100.00
7297;BME280;40758;54.038;11.684;2023-02-14T03:29:56;103360.28;;;4.13;100.00
7297;BME280;40758;54.038;11.684;2023-02-14T03:32:35;103357.56;;;4.16;100.00
7297;BME280;40758;54.038;11.684;2023-02-14T03:35:14;103352.91;;;4.32;100.00
7297;BME280;40758;54.038;11.684;2023-02-14T03:37:48;103347.69;;;4.26;100.00
7297;BME280;40758;54.038;11.684;2023-02-14T03:40:24;103350.28;;;4.27;100.00
7297;BME280;40758;54.038;11.684;2023-02-14T03:43:00;103347.69;;;4.26;100.00
7297;BME280;40758;54.038;11.684;2023-02-14T03:45:34;103352.31;;;4.12;100.00
7297;BME280;40758;54.038;11.684;2023-02-14T03:48:09;103348.78;;;4.11;100.00
7297;BME280;40758;54.038;11.684;2023-02-14T03:50:43;103351.47;;;4.08;100.00
7297;BME280;40758;54.038;11.684;2023-02-14T03:53:18;103353.31;;;4.04;100.00
7297;BME280;40758;54.038;11.684;2023-02-14T03:55:57;103346.19;;;4.06;100.00
7297;BME280;40758;54.038;11.684;2023-02-14T03:58:34;103343.47;;;4.08;100.00
7297;BME280;40758;54.038;11.684;2023-02-14T04:01:10;103346.19;;;4.05;100.00
7297;BME280;40758;54.038;11.684;2023-02-14T04:03:42;103343.53;;;4.05;100.00
7297;BME280;40758;54.038;11.684;2023-02-14T04:06:11;103353.41;;;3.97;100.00
7297;BME280;40758;54.038;11.684;2023-02-14T04:08:39;103343.66;;;3.96;100.00
7297;BME280;40758;54.038;11.684;2023-02-14T04:11:09;103350.81;;;3.91;100.00
7297;BME280;40758;54.038;11.684;2023-02-14T04:13:39;103341.97;;;3.90;100.00
7297;BME280;40758;54.038;11.684;2023-02-14T04:16:07;103350.84;;;3.89;100.00
7297;BME280;40758;54.038;11.684;2023-02-14T04:18:36;103343.72;;;3.93;100.00
7297;BME280;40758;54.038;11.684;2023-02-14T04:21:22;103355.22;;;3.95;100.00
7297;BME280;40758;54.038;11.684;2023-02-14T04:23:50;103351.69;;;3.93;100.00
7297;BME280;40758;54.038;11.684;2023-02-14T04:26:20;103344.59;;;3.93;100.00
7297;BME280;40758;54.038;11.684;2023-02-14T04:28:50;103349.84;;;3.96;100.00
7297;BME280;40758;54.038;11.684;2023-02-14T04:31:18;103351.72;;;3.91;100.00
7297;BME280;40758;54.038;11.684;2023-02-14T04:33:47;103350.66;;;4.01;100.00
7297;BME280;40758;54.038;11.684;2023-02-14T04:36:17;103354.38;;;3.91;100.00
7297;BME280;40758;54.038;11.684;2023-02-14T04:38:46;103345.41;;;3.97;100.00
7297;BME280;40758;54.038;11.684;2023-02-14T04:41:15;103342.72;;;4.00;100.00
7297;BME280;40758;54.038;11.684;2023-02-14T04:43:43;103341.09;;;3.90;100.00
7297;BME280;40758;54.038;11.684;2023-02-14T04:46:12;103337.50;;;3.94;100.00
7297;BME280;40758;54.038;11.684;2023-02-14T04:48:41;103341.16;;;3.85;100.00
7297;BME280;40758;54.038;11.684;2023-02-14T04:51:09;103347.38;;;3.84;100.00
7297;BME280;40758;54.038;11.684;2023-02-14T04:53:37;103341.09;;;3.90;100.00
7297;BME280;40758;54.038;11.684;2023-02-14T04:56:06;103334.88;;;3.91;100.00
7297;BME280;40758;54.038;11.684;2023-02-14T04:58:35;103336.72;;;3.84;100.00
7297;BME280;40758;54.038;11.684;2023-02-14T05:01:03;103334.94;;;3.88;100.00
7297;BME280;40758;54.038;11.684;2023-02-14T05:03:33;103334.94;;;3.88;100.00
7297;BME280;40758;54.038;11.684;2023-02-14T05:06:01;103337.69;;;3.82;100.00
7297;BME280;40758;54.038;11.684;2023-02-14T05:08:30;103341.06;;;3.91;100.00
7297;BME280;40758;54.038;11.684;2023-02-14T05:10:58;103331.16;;;4.02;100.00
7297;BME280;40758;54.038;11.684;2023-02-14T05:13:27;103325.13;;;3.91;100.00
7297;BME280;40758;54.038;11.684;2023-02-14T05:15:55;103335.91;;;3.82;100.00
7297;BME280;40758;54.038;11.684;2023-02-14T05:18:24;103326.16;;;3.81;100.00
7297;BME280;40758;54.038;11.684;2023-02-14T05:20:54;103330.63;;;3.78;100.00
7297;BME280;40758;54.038;11.684;2023-02-14T05:23:23;103336.03;;;3.72;100.00
7297;BME280;40758;54.038;11.684;2023-02-14T05:25:54;103337.78;;;3.73;100.00
7297;BME280;40758;54.038;11.684;2023-02-14T05:28:23;103343.09;;;3.74;100.00
7297;BME280;40758;54.038;11.684;2023-02-14T05:30:54;103333.19;;;3.84;100.00
7297;BME280;40758;54.038;11.684;2023-02-14T05:33:25;103341.16;;;3.85;100.00
7297;BME280;40758;54.038;11.684;2023-02-14T05:35:58;103327.06;;;3.77;100.00
7297;BME280;40758;54.038;11.684;2023-02-14T05:38:27;103333.34;;;3.72;100.00
7297;BME280;40758;54.038;11.684;2023-02-14T05:40:55;103328.97;;;3.69;100.00
7297;BME280;40758;54.038;11.684;2023-02-14T05:43:24;103327.25;;;3.65;100.00
7297;BME280;40758;54.038;11.684;2023-02-14T05:45:52;103334.34;;;3.64;100.00
7297;BME280;40758;54.038;11.684;2023-02-14T05:48:21;103333.50;;;3.61;100.00
7297;BME280;40758;54.038;11.684;2023-02-14T05:50:49;103333.50;;;3.62;100.00
7297;BME280;40758;54.038;11.684;2023-02-14T05:53:20;103331.56;;;3.74;100.00
7297;BME280;40758;54.038;11.684;2023-02-14T05:55:49;103325.47;;;3.65;100.00
7297;BME280;40758;54.038;11.684;2023-02-14T05:58:18;103328.94;;;3.71;100.00
7297;BME280;40758;54.038;11.684;2023-02-14T06:00:46;103327.28;;;3.63;100.00
7297;BME280;40758;54.038;11.684;2023-02-14T06:03:14;103332.59;;;3.63;100.00
7297;BME280;40758;54.038;11.684;2023-02-14T06:05:44;103330.91;;;3.58;100.00
7297;BME280;40758;54.038;11.684;2023-02-14T06:08:12;103335.38;;;3.54;100.00
7297;BME280;40758;54.038;11.684;2023-02-14T06:10:42;103330.09;;;3.51;100.00
7297;BME280;40758;54.038;11.684;2023-02-14T06:13:10;103326.53;;;3.52;100.00
7297;BME280;40758;54.038;11.684;2023-02-14T06:15:39;103330.94;;;3.53;100.00
7297;BME280;40758;54.038;11.684;2023-02-14T06:18:08;103323.03;;;3.50;100.00
7297;BME280;40758;54.038;11.684;2023-02-14T06:20:36;103337.16;;;3.52;100.00
7297;BME280;40758;54.038;11.684;2023-02-14T06:23:05;103334.47;;;3.54;100.00
7297;BME280;40758;54.038;11.684;2023-02-14T06:25:33;103342.47;;;3.52;100.00
7297;BME280;40758;54.038;11.684;2023-02-14T06:28:03;103338.97;;;3.50;100.00
7297;BME280;40758;54.038;11.684;2023-02-14T06:30:32;103340.75;;;3.50;100.00
7297;BME280;40758;54.038;11.684;2023-02-14T06:33:01;103339.81;;;3.54;100.00
7297;BME280;40758;54.038;11.684;2023-02-14T06:35:29;103351.38;;;3.51;100.00
7297;BME280;40758;54.038;11.684;2023-02-14T06:37:58;103342.53;;;3.49;100.00
7297;BME280;40758;54.038;11.684;2023-02-14T06:40:27;103342.53;;;3.49;100.00
7297;BME280;40758;54.038;11.684;2023-02-14T06:42:55;103341.66;;;3.47;100.00
7297;BME280;40758;54.038;11.684;2023-02-14T06:45:25;103345.16;;;3.51;100.00
7297;BME280;40758;54.038;11.684;2023-02-14T06:47:54;103354.91;;;3.50;100.00
7297;BME280;40758;54.038;11.684;2023-02-14T06:50:22;103346.91;;;3.53;100.00
7297;BME280;40758;54.038;11.684;2023-02-14T06:52:51;103359.28;;;3.56;100.00
7297;BME280;40758;54.038;11.684;2023-02-14T06:55:19;103353.09;;;3.55;100.00
7297;BME280;40758;54.038;11.684;2023-02-14T06:57:48;103349.38;;;3.69;100.00
7297;BME280;40758;54.038;11.684;2023-02-14T07:00:18;103353.75;;;3.71;100.00
7297;BME280;40758;54.038;11.684;2023-02-14T07:02:48;103353.75;;;3.73;100.00
7297;BME280;40758;54.038;11.684;2023-02-14T07:05:16;103358.97;;;3.79;100.00
7297;BME280;40758;54.038;11.684;2023-02-14T07:07:45;103356.31;;;3.79;100.00
7297;BME280;40758;54.038;11.684;2023-02-14T07:10:14;103351.00;;;3.79;100.00
7297;BME280;40758;54.038;11.684;2023-02-14T07:12:42;103350.91;;;3.85;100.00
7297;BME280;40758;54.038;11.684;2023-02-14T07:15:14;103349.38;;;3.69;100.00
7297;BME280;40758;54.038;11.684;2023-02-14T07:17:43;103347.53;;;3.74;100.00
7297;BME280;40758;54.038;11.684;2023-02-14T07:20:13;103340.38;;;3.77;100.00
7297;BME280;40758;54.038;11.684;2023-02-14T07:22:42;103327.78;;;3.90;100.00
7297;BME280;40758;54.038;11.684;2023-02-14T07:25:11;103335.00;;;3.82;100.00
7297;BME280;40758;54.038;11.684;2023-02-14T07:27:39;103334.78;;;3.98;100.00
7297;BME280;40758;54.038;11.684;2023-02-14T07:30:09;103336.34;;;4.13;100.00
7297;BME280;40758;54.038;11.684;2023-02-14T07:32:39;103335.47;;;4.13;100.00
7297;BME280;40758;54.038;11.684;2023-02-14T07:35:08;103326.63;;;4.09;100.00
7297;BME280;40758;54.038;11.684;2023-02-14T07:37:38;103333.63;;;4.15;100.00
7297;BME280;40758;54.038;11.684;2023-02-14T07:40:08;103330.16;;;4.11;100.00
7297;BME280;40758;54.038;11.684;2023-02-14T07:42:41;103325.75;;;4.08;100.00
7297;BME280;40758;54.038;11.684;2023-02-14T07:45:10;103333.03;;;3.96;100.00
7297;BME280;40758;54.038;11.684;2023-02-14T07:47:49;103331.09;;;4.07;100.00
7297;BME280;40758;54.038;11.684;2023-02-14T07:50:21;103322.84;;;4.24;100.00
7297;BME280;40758;54.038;11.684;2023-02-14T07:52:51;103321.19;;;4.17;100.00
7297;BME280;40758;54.038;11.684;2023-02-14T07:55:21;103318.34;;;4.27;100.00
7297;BME280;40758;54.038;11.684;2023-02-14T07:57:51;103318.13;;;4.42;100.00
7297;BME280;40758;54.038;11.684;2023-02-14T08:00:21;103319.06;;;4.38;100.00
7297;BME280;40758;54.038;11.684;2023-02-14T08:02:49;103316.56;;;4.29;100.00
7297;BME280;40758;54.038;11.684;2023-02-14T08:05:18;103320.13;;;4.28;100.00
7297;BME280;40758;54.038;11.684;2023-02-14T08:07:47;103320.09;;;4.31;100.00
7297;BME280;40758;54.038;11.684;2023-02-14T08:10:18;103316.50;;;4.32;100.00
7297;BME280;40758;54.038;11.684;2023-02-14T08:12:47;103314.03;;;4.20;100.00
7297;BME280;40758;54.038;11.684;2023-02-14T08:15:35;103318.41;;;4.26;100.00
7297;BME280;40758;54.038;11.684;2023-02-14T08:18:21;103320.69;;;4.47;100.00
7297;BME280;40758;54.038;11.684;2023-02-14T08:20:50;103324.94;;;4.59;100.00
7297;BME280;40758;54.038;11.684;2023-02-14T08:23:19;103323.25;;;4.55;100.00
7297;BME280;40758;54.038;11.684;2023-02-14T08:25:51;103326.03;;;4.47;100.00
7297;BME280;40758;54.038;11.684;2023-02-14T08:28:20;103315.38;;;4.47;100.00
7297;BME280;40758;54.038;11.684;2023-02-14T08:30:48;103318.91;;;4.47;100.00
7297;BME280;40758;54.038;11.684;2023-02-14T08:33:17;103327.00;;;4.41;100.00
7297;BME280;40758;54.038;11.684;2023-02-14T08:35:48;103327.81;;;4.45;100.00
7297;BME280;40758;54.038;11.684;2023-02-14T08:38:18;103324.94;;;4.02;100.00
7297;BME280;40758;54.038;11.684;2023-02-14T08:40:48;103327.13;;;4.32;100.00
7297;BME280;40758;54.038;11.684;2023-02-14T08:43:17;103331.34;;;4.45;100.00
7297;BME280;40758;54.038;11.684;2023-02-14T08:45:45;103327.72;;;4.51;100.00
7297;BME280;40758;54.038;11.684;2023-02-14T08:48:14;103323.28;;;4.52;99.88
7297;BME280;40758;54.038;11.684;2023-02-14T08:50:42;103320.72;;;4.45;99.82
7297;BME280;40758;54.038;11.684;2023-02-14T08:53:12;103326.91;;;4.47;99.91
7297;BME280;40758;54.038;11.684;2023-02-14T08:55:40;103331.03;;;4.65;99.92
7297;BME280;40758;54.038;11.684;2023-02-14T08:58:10;103333.38;;;4.82;99.59
7297;BME280;40758;54.038;11.684;2023-02-14T09:00:39;103331.47;;;4.90;99.14
7297;BME280;40758;54.038;11.684;2023-02-14T09:03:08;103326.22;;;4.87;98.48
7297;BME280;40758;54.038;11.684;2023-02-14T09:05:36;103325.38;;;4.83;98.09
7297;BME280;40758;54.038;11.684;2023-02-14T09:08:05;103322.69;;;4.85;98.10
7297;BME280;40758;54.038;11.684;2023-02-14T09:10:35;103328.06;;;4.82;97.99
7297;BME280;40758;54.038;11.684;2023-02-14T09:13:03;103329.13;;;4.73;98.52
7297;BME280;40758;54.038;11.684;2023-02-14T09:15:34;103331.78;;;4.75;98.14
7297;BME280;40758;54.038;11.684;2023-02-14T09:18:03;103321.69;;;4.91;98.00
7297;BME280;40758;54.038;11.684;2023-02-14T09:20:31;103318.47;;;5.19;97.73
7297;BME280;40758;54.038;11.684;2023-02-14T09:23:00;103319.22;;;5.27;97.37
7297;BME280;40758;54.038;11.684;2023-02-14T09:25:28;103323.59;;;5.30;97.08
7297;BME280;40758;54.038;11.684;2023-02-14T09:27:57;103322.66;;;5.31;96.53
7297;BME280;40758;54.038;11.684;2023-02-14T09:30:25;103322.75;;;5.28;96.01
7297;BME280;40758;54.038;11.684;2023-02-14T09:32:55;103317.47;;;5.25;96.06
7297;BME280;40758;54.038;11.684;2023-02-14T09:35:25;103320.88;;;5.33;96.35
7297;BME280;40758;54.038;11.684;2023-02-14T09:38:11;103314.34;;;5.48;95.78
7297;BME280;40758;54.038;11.684;2023-02-14T09:40:46;103309.06;;;5.45;94.98
7297;BME280;40758;54.038;11.684;2023-02-14T09:43:21;103303.56;;;5.54;94.73
7297;BME280;40758;54.038;11.684;2023-02-14T09:45:55;103305.81;;;5.72;94.68
7297;BME280;40758;54.038;11.684;2023-02-14T09:48:33;103307.25;;;5.87;94.09
7297;BME280;40758;54.038;11.684;2023-02-14T09:51:07;103306.19;;;5.95;93.69
7297;BME280;40758;54.038;11.684;2023-02-14T09:53:44;103312.44;;;5.94;93.55
7297;BME280;40758;54.038;11.684;2023-02-14T09:56:19;103306.16;;;5.98;93.41
7297;BME280;40758;54.038;11.684;2023-02-14T09:58:59;103302.78;;;5.90;93.62
7297;BME280;40758;54.038;11.684;2023-02-14T10:01:37;103315.38;;;5.82;93.68
7297;BME280;40758;54.038;11.684;2023-02-14T10:04:27;103313.06;;;5.65;93.65
7297;BME280;40758;54.038;11.684;2023-02-14T10:07:10;103319.16;;;5.72;93.84
7297;BME280;40758;54.038;11.684;2023-02-14T10:09:55;103321.44;;;5.90;94.10
7297;BME280;40758;54.038;11.684;2023-02-14T10:12:35;103314.19;;;5.97;93.97
7297;BME280;40758;54.038;11.684;2023-02-14T10:15:14;103306.78;;;6.09;93.42
7297;BME280;40758;54.038;11.684;2023-02-14T10:17:48;103309.50;;;6.42;92.29
7297;BME280;40758;54.038;11.684;2023-02-14T10:20:29;103303.56;;;6.31;91.17
7297;BME280;40758;54.038;11.684;2023-02-14T10:23:05;103300.84;;;6.34;90.75
7297;BME280;40758;54.038;11.684;2023-02-14T10:25:41;103295.19;;;6.46;90.33
7297;BME280;40758;54.038;11.684;2023-02-14T10:28:16;103295.84;;;6.19;90.12
7297;BME280;40758;54.038;11.684;2023-02-14T10:31:10;103292.72;;;6.01;90.49
7297;BME280;40758;54.038;11.684;2023-02-14T10:33:51;103288.84;;;6.15;90.59
7297;BME280;40758;54.038;11.684;2023-02-14T10:36:44;103290.59;;;6.16;90.86
7297;BME280;40758;54.038;11.684;2023-02-14T10:39:40;103294.66;;;6.32;91.28
7297;BME280;40758;54.038;11.684;2023-02-14T10:42:23;103291.22;;;6.27;90.96
7297;BME280;40758;54.038;11.684;2023-02-14T10:45:07;103294.91;;;5.83;90.46
7297;BME280;40758;54.038;11.684;2023-02-14T10:47:50;103294.53;;;6.36;90.37
7297;BME280;40758;54.038;11.684;2023-02-14T10:50:30;103289.78;;;6.12;90.13
7297;BME280;40758;54.038;11.684;2023-02-14T10:53:13;103293.28;;;6.51;89.87
7297;BME280;40758;54.038;11.684;2023-02-14T10:55:49;103282.84;;;6.74;88.86
7297;BME280;40758;54.038;11.684;2023-02-14T10:58:22;103273.84;;;6.78;88.65
7297;BME280;40758;54.038;11.684;2023-02-14T11:00:59;103275.91;;;6.67;88.34
7297;BME280;40758;54.038;11.684;2023-02-14T11:03:30;103278.44;;;6.39;88.78
7297;BME280;40758;54.038;11.684;2023-02-14T11:05:59;103265.66;;;6.52;88.25
7297;BME280;40758;54.038;11.684;2023-02-14T11:08:33;103283.75;;;6.41;88.65
7297;BME280;40758;54.038;11.684;2023-02-14T11:11:13;103281.69;;;6.52;88.71
7297;BME280;40758;54.038;11.684;2023-02-14T11:13:46;103274.19;;;6.66;88.31
7297;BME280;40758;54.038;11.684;2023-02-14T11:16:29;103275.69;;;6.76;88.10
7297;BME280;40758;54.038;11.684;2023-02-14T11:19:18;103271.84;;;6.86;87.87
7297;BME280;40758;54.038;11.684;2023-02-14T11:21:49;103272.66;;;6.90;87.10
7297;BME280;40758;54.038;11.684;2023-02-14T11:24:29;103264.31;;;7.01;86.63
7297;BME280;40758;54.038;11.684;2023-02-14T11:27:01;103264.03;;;7.10;86.97
7297;BME280;40758;54.038;11.684;2023-02-14T11:29:41;103259.47;;;6.82;86.36
7297;BME280;40758;54.038;11.684;2023-02-14T11:32:15;103256.41;;;6.65;86.74
7297;BME280;40758;54.038;11.684;2023-02-14T11:34:55;103255.72;;;6.89;87.02
7297;BME280;40758;54.038;11.684;2023-02-14T11:37:29;103255.41;;;7.00;86.75
7297;BME280;40758;54.038;11.684;2023-02-14T11:40:02;103250.38;;;6.89;86.51
7297;BME280;40758;54.038;11.684;2023-02-14T11:42:39;103253.03;;;6.57;87.03
7297;BME280;40758;54.038;11.684;2023-02-14T11:45:28;103258.22;;;6.63;88.07
7297;BME280;40758;54.038;11.684;2023-02-14T11:48:15;103251.78;;;6.38;88.62
7297;BME280;40758;54.038;11.684;2023-02-14T11:51:02;103256.72;;;6.53;89.04
7297;BME280;40758;54.038;11.684;2023-02-14T11:53:44;103255.44;;;6.99;88.48
7297;BME280;40758;54.038;11.684;2023-02-14T11:56:16;103241.97;;;7.03;87.00
7297;BME280;40758;54.038;11.684;2023-02-14T11:58:51;103235.13;;;6.93;86.61
7297;BME280;40758;54.038;11.684;2023-02-14T12:01:24;103233.66;;;7.14;86.85
7297;BME280;40758;54.038;11.684;2023-02-14T12:04:02;103226.00;;;7.31;86.63
7297;BME280;40758;54.038;11.684;2023-02-14T12:06:34;103220.22;;;7.45;85.74
7297;BME280;40758;54.038;11.684;2023-02-14T12:09:11;103226.31;;;7.50;86.24
7297;BME280;40758;54.038;11.684;2023-02-14T12:11:54;103220.28;;;7.14;85.70
7297;BME280;40758;54.038;11.684;2023-02-14T12:14:27;103216.94;;;7.35;85.21
7297;BME280;40758;54.038;11.684;2023-02-14T12:17:04;103208.91;;;7.35;85.11
7297;BME280;40758;54.038;11.684;2023-02-14T12:19:46;103206.97;;;7.69;84.24
7297;BME280;40758;54.038;11.684;2023-02-14T12:22:20;103194.06;;;7.82;84.21
7297;BME280;40758;54.038;11.684;2023-02-14T12:24:58;103187.50;;;7.64;83.50
7297;BME280;40758;54.038;11.684;2023-02-14T12:27:43;103185.25;;;7.79;83.86
7297;BME280;40758;54.038;11.684;2023-02-14T12:30:20;103181.75;;;7.77;83.70
7297;BME280;40758;54.038;11.684;2023-02-14T12:32:51;103182.28;;;7.60;83.58
7297;BME280;40758;54.038;11.684;2023-02-14T12:35:45;103184.41;;;7.50;83.90
7297;BME280;40758;54.038;11.684;2023-02-14T12:38:24;103183.31;;;7.28;84.00
7297;BME280;40758;54.038;11.684;2023-02-14T12:41:12;103180.97;;;6.86;84.69
7297;BME280;40758;54.038;11.684;2023-02-14T12:43:48;103186.69;;;7.04;85.58
7297;BME280;40758;54.038;11.684;2023-02-14T12:46:55;103181.75;;;7.21;85.37
7297;BME280;40758;54.038;11.684;2023-02-14T12:53:03;103158.69;;;8.51;83.44
7297;BME280;40758;54.038;11.684;2023-02-14T12:55:50;103153.69;;;8.41;81.83
7297;BME280;40758;54.038;11.684;2023-02-14T12:58:42;103151.38;;;8.04;81.66
7297;BME280;40758;54.038;11.684;2023-02-14T13:01:37;103146.78;;;8.34;81.20
7297;BME280;40758;54.038;11.684;2023-02-14T13:04:41;103148.13;;;7.96;80.84
7297;BME280;40758;54.038;11.684;2023-02-14T13:07:28;103145.91;;;7.82;82.04
7297;BME280;40758;54.038;11.684;2023-02-14T13:10:14;103143.47;;;7.75;82.82
7297;BME280;40758;54.038;11.684;2023-02-14T13:12:56;103151.22;;;7.84;82.72
7297;BME280;40758;54.038;11.684;2023-02-14T13:15:37;103145.91;;;8.33;82.52
7297;BME280;40758;54.038;11.684;2023-02-14T13:18:23;103138.00;;;8.29;81.95
7297;BME280;40758;54.038;11.684;2023-02-14T13:21:03;103132.22;;;8.89;81.29
7297;BME280;40758;54.038;11.684;2023-02-14T13:23:37;103122.28;;;9.81;80.03
7297;BME280;40758;54.038;11.684;2023-02-14T13:26:15;103104.31;;;9.82;77.71
7297;BME280;40758;54.038;11.684;2023-02-14T13:28:50;103110.69;;;9.14;77.72
7297;BME280;40758;54.038;11.684;2023-02-14T13:31:20;103111.84;;;9.52;77.33
7297;BME280;40758;54.038;11.684;2023-02-14T13:33:56;103104.59;;;9.10;77.24
7297;BME280;40758;54.038;11.684;2023-02-14T13:36:27;103107.81;;;8.25;78.12
7297;BME280;40758;54.038;11.684;2023-02-14T13:38:58;103115.72;;;8.28;79.42